Time;durP1;ratioP1;P1;durP2;ratioP2;P2;SDS_P1;SDS_P2;PMS_P1;PMS_P2;Temp;Humidity;BMP_temperature;BMP_pressure;BME280_temperature;BME280_humidity;BME280_pressure;Samples;Min_cycle;Max_cycle;Signal;HPM_P1;HPM_P2
2022/09/16 00:01:32;;;;;;;2.88;1.58;;;18.20;68.60;;;;;;4077706;28;20777;-40
2022/09/16 00:03:56;;;;;;;2.45;1.42;;;18.20;68.50;;;;;;4077383;28;20517;-40
2022/09/16 00:06:22;;;;;;;2.08;1.42;;;18.20;68.50;;;;;;4071865;28;20380;-41
2022/09/16 00:08:44;;;;;;;2.15;1.40;;;18.20;68.40;;;;;;4070157;28;20027;-42
2022/09/16 00:11:07;;;;;;;2.63;1.27;;;18.20;68.40;;;;;;4073105;28;20039;-39
2022/09/16 00:13:30;;;;;;;2.55;1.50;;;18.20;68.30;;;;;;4072225;28;20078;-39
2022/09/16 00:15:52;;;;;;;1.17;1.05;;;18.20;68.80;;;;;;4079012;28;20126;-38
2022/09/16 00:18:15;;;;;;;3.30;1.55;;;18.20;68.10;;;;;;4070994;28;20035;-38
2022/09/16 00:20:46;;;;;;;2.95;0.90;;;18.20;68.20;;;;;;4074058;28;20503;-38
2022/09/16 00:23:09;;;;;;;1.15;1.00;;;18.20;68.10;;;;;;4079425;28;20047;-38
2022/09/16 00:25:33;;;;;;;1.52;1.10;;;18.20;68.10;;;;;;4075990;28;20043;-37
2022/09/16 00:27:56;;;;;;;1.48;1.20;;;18.20;68.10;;;;;;4091051;28;20047;-37
2022/09/16 00:30:18;;;;;;;1.60;0.90;;;18.20;68.10;;;;;;4083514;28;20035;-37
2022/09/16 00:32:41;;;;;;;1.50;1.17;;;18.20;68.10;;;;;;4085520;28;20055;-44
2022/09/16 00:35:04;;;;;;;1.20;1.05;;;18.20;68.10;;;;;;4074190;28;20047;-41
2022/09/16 00:37:26;;;;;;;2.38;1.15;;;18.20;67.90;;;;;;4077949;28;20097;-39
2022/09/16 00:39:49;;;;;;;1.65;1.17;;;18.30;67.80;;;;;;4068204;28;20035;-39
2022/09/16 00:42:12;;;;;;;1.27;1.08;;;18.30;67.90;;;;;;4073217;28;20043;-45
2022/09/16 00:45:01;;;;;;;1.67;1.02;;;18.30;67.90;;;;;;4073878;28;20507;-41
2022/09/16 00:47:33;;;;;;;1.05;1.00;;;18.30;67.70;;;;;;4082039;28;20051;-38
2022/09/16 00:50:02;;;;;;;1.60;1.10;;;18.30;67.70;;;;;;4082867;28;20035;-40
2022/09/16 00:52:25;;;;;;;1.50;1.00;;;18.30;67.80;;;;;;4083355;28;20044;-42
2022/09/16 00:54:48;;;;;;;1.60;0.85;;;18.30;67.70;;;;;;4086619;28;20102;-40
2022/09/16 00:57:14;;;;;;;1.55;0.80;;;18.30;67.70;;;;;;4083490;28;20545;-39
2022/09/16 00:59:41;;;;;;;1.27;0.90;;;18.30;67.70;;;;;;4085115;28;20114;-45
2022/09/16 01:02:09;;;;;;;1.38;0.80;;;18.30;67.70;;;;;;4091504;28;20075;-40
2022/09/16 01:04:37;;;;;;;0.93;0.82;;;18.30;67.60;;;;;;4084201;28;20435;-42
2022/09/16 01:07:01;;;;;;;1.45;0.80;;;18.30;67.70;;;;;;4081647;28;20647;-43
2022/09/16 01:09:25;;;;;;;1.67;1.00;;;18.30;67.60;;;;;;4078401;28;20303;-41
2022/09/16 01:11:48;;;;;;;1.33;0.80;;;18.30;67.60;;;;;;4082722;28;20344;-44
2022/09/16 01:17:34;;;;;;;1.75;1.10;;;18.40;67.60;;;;;;4085260;28;20118;-39
2022/09/16 01:20:09;;;;;;;1.10;0.93;;;18.40;67.60;;;;;;4076619;28;20046;-39
2022/09/16 01:22:53;;;;;;;;;;;18.40;67.50;;;;;;4077110;28;20044;-40
2022/09/16 01:25:38;;;;;;;0.80;0.80;;;18.40;67.50;;;;;;4064006;28;19929;-39
2022/09/16 01:28:28;;;;;;;1.35;0.82;;;18.40;67.40;;;;;;4077340;28;20046;-40
2022/09/16 01:31:24;;;;;;;0.93;0.70;;;18.40;67.40;;;;;;4081167;28;20451;-42
2022/09/16 01:33:47;;;;;;;1.00;0.80;;;18.50;67.30;;;;;;4077053;28;20043;-42
2022/09/16 01:36:22;;;;;;;0.90;0.80;;;18.50;67.30;;;;;;4084693;28;20523;-41
2022/09/16 01:38:45;;;;;;;1.13;0.90;;;18.50;67.10;;;;;;4075616;28;20043;-39
2022/09/16 01:41:20;;;;;;;1.10;1.00;;;18.50;67.00;;;;;;4081836;28;20054;-42
2022/09/16 01:43:47;;;;;;;1.05;0.90;;;18.50;67.10;;;;;;4086174;28;20051;-40
2022/09/16 01:46:26;;;;;;;1.27;0.88;;;18.50;66.80;;;;;;4083727;28;20035;-39
2022/09/16 01:49:27;;;;;;;1.63;1.20;;;18.60;66.80;;;;;;4076634;28;20044;-40
2022/09/16 01:52:13;;;;;;;0.90;0.88;;;18.60;66.90;;;;;;4079145;28;20043;-43
2022/09/16 01:55:09;;;;;;;1.30;0.98;;;18.60;66.70;;;;;;4074472;28;20427;-38
2022/09/16 01:57:38;;;;;;;1.02;0.90;;;18.70;67.30;;;;;;4074467;28;20498;-39
2022/09/16 02:00:10;;;;;;;1.65;1.00;;;18.70;66.60;;;;;;4074532;28;20415;-42
2022/09/16 02:02:49;;;;;;;1.50;1.10;;;18.70;66.50;;;;;;4073271;28;20680;-42
2022/09/16 02:05:38;;;;;;;2.30;1.20;;;18.70;66.60;;;;;;4069988;28;20400;-45
2022/09/16 02:08:11;;;;;;;1.25;1.05;;;18.80;66.40;;;;;;4070210;28;20162;-38
2022/09/16 02:10:57;;;;;;;1.40;1.00;;;18.70;66.10;;;;;;4072011;28;20039;-40
2022/09/16 02:13:30;;;;;;;0.85;0.75;;;18.80;66.00;;;;;;4077404;28;20673;-39
2022/09/16 02:15:55;;;;;;;1.33;1.20;;;18.80;66.00;;;;;;4074274;28;20404;-38
2022/09/16 02:18:24;;;;;;;1.83;1.10;;;18.80;65.90;;;;;;4067877;28;20024;-42
2022/09/16 02:20:49;;;;;;;1.30;0.90;;;18.80;65.60;;;;;;4073924;28;20035;-39
2022/09/16 02:23:20;;;;;;;1.23;0.90;;;18.80;65.80;;;;;;4069677;28;20043;-40
2022/09/16 02:25:46;;;;;;;0.98;0.77;;;18.80;65.40;;;;;;4073662;28;20516;-40
2022/09/16 02:28:14;;;;;;;1.70;0.80;;;18.80;65.30;;;;;;4073594;28;20513;-38
2022/09/16 02:30:36;;;;;;;2.03;1.42;;;18.90;65.50;;;;;;4076310;28;20470;-38
2022/09/16 02:33:06;;;;;;;1.92;1.20;;;18.90;65.10;;;;;;4068447;28;20103;-40
2022/09/16 02:35:33;;;;;;;1.60;1.10;;;18.90;65.00;;;;;;4073984;28;20043;-39
2022/09/16 02:38:08;;;;;;;2.10;0.80;;;18.90;65.00;;;;;;4069651;28;20043;-42
2022/09/16 02:40:52;;;;;;;2.33;1.23;;;18.90;64.60;;;;;;4070111;28;20428;-42
2022/09/16 02:43:15;;;;;;;2.75;1.40;;;18.90;64.50;;;;;;4078441;28;20055;-41
2022/09/16 02:46:39;;;;;;;2.30;1.15;;;19.00;64.40;;;;;;4076462;28;20106;-40
2022/09/16 02:49:14;;;;;;;3.22;1.25;;;19.00;64.30;;;;;;4039919;29;20504;-45
2022/09/16 02:51:41;;;;;;;1.85;1.20;;;19.00;64.10;;;;;;4040862;29;20709;-46
2022/09/16 02:54:24;;;;;;;1.98;0.95;;;19.10;64.00;;;;;;4053885;28;20051;-43
2022/09/16 02:56:47;;;;;;;1.95;1.05;;;19.10;63.80;;;;;;4077151;28;20067;-40
2022/09/16 02:59:12;;;;;;;1.00;0.82;;;19.10;63.70;;;;;;4069188;28;20331;-41
2022/09/16 03:01:43;;;;;;;1.70;1.00;;;19.10;63.60;;;;;;4068221;28;20058;-39
2022/09/16 03:04:05;;;;;;;2.13;1.20;;;19.10;63.40;;;;;;4076995;28;20059;-42
2022/09/16 03:06:29;;;;;;;2.30;1.17;;;19.20;63.30;;;;;;4085254;28;20051;-39
2022/09/16 03:08:57;;;;;;;2.38;1.10;;;19.10;63.00;;;;;;4077669;28;20142;-43
2022/09/16 03:11:55;;;;;;;1.35;0.98;;;19.20;62.90;;;;;;4079132;28;20046;-41
2022/09/16 03:14:39;;;;;;;1.95;1.17;;;19.20;62.90;;;;;;4071951;28;20038;-42
2022/09/16 03:17:36;;;;;;;2.20;1.40;;;19.20;62.70;;;;;;4078136;28;20047;-41
2022/09/16 03:20:13;;;;;;;1.77;1.20;;;19.30;62.60;;;;;;4074677;28;20062;-46
2022/09/16 03:22:46;;;;;;;2.50;1.10;;;19.30;62.40;;;;;;4074910;28;20047;-44
2022/09/16 03:25:34;;;;;;;2.53;1.23;;;19.40;62.10;;;;;;4079266;28;21019;-40
2022/09/16 03:28:18;;;;;;;1.50;1.10;;;19.40;61.90;;;;;;4083851;28;20709;-43
2022/09/16 03:31:03;;;;;;;1.63;0.90;;;19.40;61.60;;;;;;4075849;28;20043;-45
2022/09/16 03:33:40;;;;;;;1.52;0.93;;;19.50;61.60;;;;;;4081177;28;20491;-42
2022/09/16 03:36:07;;;;;;;1.73;0.80;;;19.50;61.50;;;;;;4086355;28;20039;-42
2022/09/16 03:38:33;;;;;;;1.48;0.90;;;19.60;61.10;;;;;;4077912;28;20466;-43
2022/09/16 03:40:56;;;;;;;0.88;0.85;;;19.60;61.30;;;;;;4076278;28;20460;-41
2022/09/16 03:43:18;;;;;;;0.60;0.60;;;19.70;61.20;;;;;;4081706;28;20054;-40
2022/09/16 03:45:42;;;;;;;1.00;0.52;;;19.70;61.10;;;;;;4086247;28;20051;-39
2022/09/16 03:48:05;;;;;;;1.58;0.80;;;19.80;61.10;;;;;;4085336;28;20171;-39
2022/09/16 03:50:27;;;;;;;0.70;0.60;;;19.80;60.80;;;;;;4083712;28;20058;-38
2022/09/16 03:52:50;;;;;;;1.88;1.10;;;19.90;60.90;;;;;;4083744;28;20114;-38
2022/09/16 03:55:13;;;;;;;0.75;0.60;;;20.00;60.80;;;;;;4079049;28;20039;-40
2022/09/16 03:57:35;;;;;;;1.15;0.90;;;20.00;60.60;;;;;;4072818;28;20040;-38
2022/09/16 03:59:58;;;;;;;1.27;0.70;;;20.10;60.40;;;;;;4083905;28;20044;-39
2022/09/16 04:02:21;;;;;;;1.40;0.70;;;20.20;60.50;;;;;;4085718;28;20118;-40
2022/09/16 04:04:43;;;;;;;1.42;0.60;;;20.20;60.90;;;;;;4081958;28;20047;-39
2022/09/16 04:07:06;;;;;;;0.77;0.70;;;20.30;60.60;;;;;;4086208;28;20047;-39
2022/09/16 04:09:29;;;;;;;0.60;0.55;;;20.40;60.60;;;;;;4088611;28;20047;-40
2022/09/16 04:11:51;;;;;;;0.85;0.77;;;20.40;60.40;;;;;;4084771;28;20512;-38
2022/09/16 04:14:14;;;;;;;0.90;0.63;;;20.50;60.50;;;;;;4080905;28;20066;-39
2022/09/16 04:16:37;;;;;;;0.50;0.30;;;20.50;60.60;;;;;;4080435;28;20339;-39
2022/09/16 04:19:00;;;;;;;0.95;0.60;;;20.60;60.10;;;;;;4088782;28;20066;-39
2022/09/16 04:21:23;;;;;;;0.50;0.50;;;20.60;60.00;;;;;;4082470;28;20102;-42
2022/09/16 04:23:46;;;;;;;0.80;0.60;;;20.80;60.00;;;;;;4083362;28;20051;-42
2022/09/16 04:26:09;;;;;;;0.82;0.57;;;20.80;60.30;;;;;;4083766;28;20054;-38
2022/09/16 04:28:33;;;;;;;1.40;0.80;;;20.80;59.70;;;;;;4081612;28;20066;-38
2022/09/16 04:31:03;;;;;;;1.65;0.60;;;20.90;60.10;;;;;;4082920;28;20047;-40
2022/09/16 04:33:29;;;;;;;1.38;0.70;;;21.00;60.00;;;;;;4084601;28;20396;-41
2022/09/16 04:35:51;;;;;;;1.05;0.90;;;21.00;59.90;;;;;;4086844;28;20125;-40
2022/09/16 04:38:14;;;;;;;0.60;0.50;;;21.10;59.50;;;;;;4088202;28;20043;-39
2022/09/16 04:40:38;;;;;;;0.65;0.47;;;21.10;59.40;;;;;;4083818;28;20460;-38
2022/09/16 04:43:01;;;;;;;0.80;0.60;;;21.10;59.70;;;;;;4088595;28;20105;-39
2022/09/16 04:45:23;;;;;;;0.40;0.40;;;21.10;59.70;;;;;;4086653;28;20106;-40
2022/09/16 04:47:46;;;;;;;0.63;0.52;;;21.20;59.60;;;;;;4086287;28;20127;-41
2022/09/16 04:50:10;;;;;;;0.40;0.40;;;21.30;59.10;;;;;;4082225;28;20047;-41
2022/09/16 04:52:33;;;;;;;0.63;0.55;;;21.20;59.20;;;;;;4076166;28;20138;-41
2022/09/16 04:54:55;;;;;;;0.53;0.40;;;21.20;60.00;;;;;;4085903;28;20047;-40
2022/09/16 04:57:18;;;;;;;0.40;0.40;;;21.20;59.40;;;;;;4084093;28;20150;-42
2022/09/16 04:59:41;;;;;;;1.23;0.55;;;21.10;59.40;;;;;;4084654;28;20487;-43
2022/09/16 05:02:03;;;;;;;0.85;0.50;;;21.20;59.50;;;;;;4075673;28;20036;-39
2022/09/16 05:04:26;;;;;;;0.73;0.40;;;21.20;59.20;;;;;;4077568;28;20051;-45
2022/09/16 05:06:49;;;;;;;0.82;0.60;;;21.30;59.40;;;;;;4082861;28;20519;-43
2022/09/16 05:09:12;;;;;;;0.50;0.50;;;21.40;59.30;;;;;;4075763;28;20098;-39
2022/09/16 05:11:38;;;;;;;0.93;0.40;;;21.40;58.90;;;;;;4080820;28;20050;-42
2022/09/16 05:14:06;;;;;;;0.93;0.40;;;21.50;58.90;;;;;;4080040;28;20530;-39
2022/09/16 05:16:29;;;;;;;0.40;0.40;;;21.60;58.70;;;;;;4084169;28;20149;-41
2022/09/16 05:18:55;;;;;;;0.73;0.40;;;21.70;58.60;;;;;;4077081;28;20042;-39
2022/09/16 05:21:21;;;;;;;0.70;0.40;;;21.80;58.60;;;;;;4082239;28;20036;-41
2022/09/16 05:23:44;;;;;;;0.65;0.40;;;21.80;58.30;;;;;;4082769;28;20050;-42
2022/09/16 05:26:21;;;;;;;0.50;0.40;;;21.90;58.30;;;;;;4083829;28;20043;-42
2022/09/16 05:28:44;;;;;;;0.40;0.40;;;21.90;58.00;;;;;;4079369;28;20387;-42
2022/09/16 05:31:18;;;;;;;1.00;0.50;;;21.90;58.20;;;;;;4083141;28;20102;-39
2022/09/16 05:33:44;;;;;;;0.55;0.43;;;21.90;58.10;;;;;;4082297;28;20049;-40
2022/09/16 05:36:13;;;;;;;1.05;0.70;;;21.90;58.00;;;;;;4082311;28;20044;-42
2022/09/16 05:38:35;;;;;;;0.40;0.40;;;22.00;58.10;;;;;;4080687;28;20768;-39
2022/09/16 05:40:59;;;;;;;1.25;0.50;;;22.00;58.00;;;;;;4083883;28;20040;-39
2022/09/16 05:43:22;;;;;;;;;;;22.10;57.80;;;;;;4097413;28;20043;-42
2022/09/16 05:45:51;;;;;;;0.43;0.40;;;22.20;57.70;;;;;;4084555;28;20382;-41
2022/09/16 05:48:14;;;;;;;0.80;0.40;;;22.20;57.40;;;;;;4083039;28;20046;-43
2022/09/16 05:50:36;;;;;;;0.90;0.50;;;22.30;57.40;;;;;;4082901;28;20039;-39
2022/09/16 05:52:59;;;;;;;0.95;0.45;;;22.30;57.00;;;;;;4082222;28;20407;-39
2022/09/16 05:55:25;;;;;;;1.15;0.50;;;22.40;56.80;;;;;;4080009;28;20042;-39
2022/09/16 05:57:48;;;;;;;0.80;0.50;;;22.40;56.60;;;;;;4084262;28;20043;-41
2022/09/16 06:00:14;;;;;;;0.90;0.63;;;22.50;56.40;;;;;;4082857;28;20427;-41
2022/09/16 06:02:37;;;;;;;1.38;0.60;;;22.50;56.30;;;;;;4082381;28;20491;-41
2022/09/16 06:04:59;;;;;;;0.90;0.73;;;22.60;56.10;;;;;;4080389;28;20466;-45
2022/09/16 06:07:22;;;;;;;0.80;0.50;;;22.60;56.00;;;;;;4085063;28;20114;-39
2022/09/16 06:09:46;;;;;;;0.30;0.30;;;22.60;55.90;;;;;;4083338;28;20049;-42
2022/09/16 06:12:10;;;;;;;0.73;0.60;;;22.60;55.70;;;;;;4081110;28;20044;-42
2022/09/16 06:14:33;;;;;;;0.75;0.60;;;22.70;55.70;;;;;;4081219;28;20563;-41
2022/09/16 06:16:56;;;;;;;0.50;0.35;;;22.70;55.60;;;;;;4080383;28;20051;-40
2022/09/16 06:19:19;;;;;;;0.95;0.47;;;22.70;55.60;;;;;;4080272;28;20043;-39
2022/09/16 06:21:43;;;;;;;0.80;0.50;;;22.70;55.50;;;;;;4093032;28;20043;-40
2022/09/16 06:24:07;;;;;;;;;;;22.70;55.30;;;;;;4083024;28;20058;-40
2022/09/16 06:26:30;;;;;;;0.57;0.40;;;22.70;55.30;;;;;;4079342;28;19915;-43
2022/09/16 06:28:54;;;;;;;0.93;0.65;;;22.70;55.30;;;;;;4080219;28;20051;-49
2022/09/16 06:31:20;;;;;;;0.40;0.40;;;22.70;55.20;;;;;;4078814;28;20055;-43
2022/09/16 06:33:43;;;;;;;0.50;0.43;;;22.70;55.10;;;;;;4080992;28;20050;-46
2022/09/16 06:36:11;;;;;;;0.95;0.55;;;22.70;55.00;;;;;;4078147;28;20464;-40
2022/09/16 06:38:35;;;;;;;0.63;0.50;;;22.70;54.90;;;;;;4078787;28;20067;-41
2022/09/16 06:41:03;;;;;;;0.57;0.52;;;22.70;54.80;;;;;;4083578;28;20047;-45
2022/09/16 06:43:26;;;;;;;1.27;0.63;;;22.70;54.80;;;;;;4080241;28;20066;-39
2022/09/16 06:45:49;;;;;;;0.70;0.52;;;22.70;54.70;;;;;;4084459;28;20082;-40
2022/09/16 06:48:11;;;;;;;1.17;0.60;;;22.70;54.70;;;;;;4078373;28;20123;-41
2022/09/16 06:50:34;;;;;;;1.02;0.50;;;22.70;54.60;;;;;;4084468;28;20078;-41
2022/09/16 06:52:57;;;;;;;0.47;0.47;;;22.70;54.70;;;;;;4085603;28;20043;-42
2022/09/16 06:55:20;;;;;;;1.33;0.60;;;22.80;54.50;;;;;;4082396;28;20586;-39
2022/09/16 06:57:42;;;;;;;0.65;0.30;;;22.80;54.60;;;;;;4083026;28;20043;-39
2022/09/16 07:00:05;;;;;;;1.27;0.55;;;22.70;54.60;;;;;;4079476;28;20054;-45
2022/09/16 07:02:30;;;;;;;1.55;0.50;;;22.70;54.70;;;;;;4080855;28;20098;-40
2022/09/16 07:04:53;;;;;;;0.50;0.50;;;22.70;54.80;;;;;;4074862;28;21046;-40
2022/09/16 07:07:16;;;;;;;1.30;0.63;;;22.70;54.80;;;;;;4084461;28;20078;-43
2022/09/16 07:09:40;;;;;;;1.23;0.60;;;22.60;54.70;;;;;;4081925;28;20504;-40
2022/09/16 07:12:03;;;;;;;0.55;0.40;;;22.60;54.90;;;;;;4077378;28;20047;-40
2022/09/16 07:14:26;;;;;;;0.82;0.52;;;22.60;55.00;;;;;;4085263;28;20541;-39
2022/09/16 07:16:49;;;;;;;1.45;0.70;;;22.50;55.10;;;;;;4084985;28;20043;-39
2022/09/16 07:19:12;;;;;;;0.47;0.40;;;22.50;55.30;;;;;;4081300;28;20534;-40
2022/09/16 07:21:35;;;;;;;1.15;0.45;;;22.50;55.50;;;;;;4083061;28;20043;-41
2022/09/16 07:23:59;;;;;;;0.75;0.50;;;22.40;55.50;;;;;;4084774;28;20110;-42
2022/09/16 07:26:25;;;;;;;0.77;0.50;;;22.40;55.50;;;;;;4083421;28;20460;-42
2022/09/16 07:28:49;;;;;;;0.32;0.32;;;22.30;55.60;;;;;;4082508;28;20053;-39
2022/09/16 07:31:24;;;;;;;0.95;0.40;;;22.30;55.70;;;;;;4084841;28;20043;-41
2022/09/16 07:33:49;;;;;;;0.85;0.50;;;22.20;55.80;;;;;;4067293;28;20047;-42
2022/09/16 07:36:15;;;;;;;1.08;0.32;;;22.20;55.90;;;;;;4078865;28;20046;-40
2022/09/16 07:38:38;;;;;;;0.55;0.43;;;22.20;56.00;;;;;;4075965;28;20043;-40
2022/09/16 07:41:05;;;;;;;0.55;0.50;;;22.20;56.70;;;;;;4073481;28;20579;-40
2022/09/16 07:43:28;;;;;;;0.55;0.55;;;22.10;56.10;;;;;;4076515;28;20048;-39
2022/09/16 07:45:58;;;;;;;0.65;0.40;;;22.10;56.10;;;;;;4078177;28;20046;-44
2022/09/16 07:48:21;;;;;;;0.95;0.40;;;22.10;56.10;;;;;;4072371;28;20047;-39
2022/09/16 07:50:43;;;;;;;0.50;0.30;;;22.10;56.30;;;;;;4071261;28;20072;-40
2022/09/16 07:53:06;;;;;;;1.30;0.57;;;22.10;56.10;;;;;;4078257;28;20050;-39
2022/09/16 07:55:29;;;;;;;1.15;0.70;;;22.00;56.10;;;;;;4075841;28;20035;-40
2022/09/16 07:57:52;;;;;;;0.30;0.30;;;22.00;56.20;;;;;;4078389;28;20117;-40
2022/09/16 08:00:15;;;;;;;1.10;0.38;;;22.00;56.30;;;;;;4079375;28;20035;-43
2022/09/16 08:02:38;;;;;;;0.60;0.52;;;22.00;56.30;;;;;;4078183;28;20069;-39
2022/09/16 08:05:01;;;;;;;1.47;0.60;;;22.00;56.30;;;;;;4076924;28;20090;-42
2022/09/16 08:07:24;;;;;;;0.57;0.40;;;22.00;56.30;;;;;;4080542;28;20364;-40
2022/09/16 08:09:46;;;;;;;1.02;0.60;;;21.90;56.40;;;;;;4070356;28;20048;-41
2022/09/16 08:12:09;;;;;;;0.85;0.50;;;21.90;56.40;;;;;;4072261;28;20411;-38
2022/09/16 08:14:32;;;;;;;0.30;0.30;;;21.90;56.30;;;;;;4080397;28;20035;-39
2022/09/16 08:16:55;;;;;;;0.38;0.38;;;21.90;56.50;;;;;;4073301;28;20605;-39
2022/09/16 08:19:19;;;;;;;0.30;0.30;;;21.90;56.60;;;;;;4076221;28;20522;-39
2022/09/16 08:21:41;;;;;;;;;;;21.90;56.60;;;;;;4074859;28;20035;-38
2022/09/16 08:24:04;;;;;;;0.45;0.45;;;21.90;56.60;;;;;;4073759;28;19922;-40
2022/09/16 08:26:26;;;;;;;0.82;0.50;;;21.90;56.70;;;;;;4073981;28;20046;-39
2022/09/16 08:28:50;;;;;;;0.50;0.50;;;21.90;56.60;;;;;;4073786;28;20027;-41
2022/09/16 08:31:13;;;;;;;0.93;0.60;;;21.80;56.60;;;;;;4072103;28;20035;-38
2022/09/16 08:33:38;;;;;;;0.63;0.32;;;21.80;56.70;;;;;;4074158;28;20044;-39
2022/09/16 08:36:19;;;;;;;0.40;0.40;;;21.80;56.80;;;;;;4090738;28;20839;-38
2022/09/16 08:38:44;;;;;;;0.85;0.52;;;21.80;56.80;;;;;;4076318;28;20031;-39
2022/09/16 08:41:16;;;;;;;0.88;0.70;;;21.70;56.70;;;;;;4076644;28;20058;-39
2022/09/16 08:43:46;;;;;;;0.57;0.50;;;21.70;56.80;;;;;;4079569;28;20134;-39
2022/09/16 08:46:49;;;;;;;0.30;0.30;;;21.70;56.90;;;;;;4075175;28;20601;-41
2022/09/16 08:49:36;;;;;;;0.65;0.40;;;21.70;56.90;;;;;;4077822;28;20561;-39
2022/09/16 08:52:02;;;;;;;1.15;0.85;;;21.70;57.00;;;;;;4080139;28;20051;-39
2022/09/16 08:55:19;;;;;;;1.48;0.55;;;21.70;57.00;;;;;;4074490;28;20476;-40
2022/09/16 08:57:56;;;;;;;0.55;0.50;;;21.70;57.20;;;;;;4041727;29;20056;-40
2022/09/16 09:00:19;;;;;;;0.63;0.55;;;21.70;57.20;;;;;;4084106;28;20443;-40
2022/09/16 09:02:59;;;;;;;0.80;0.40;;;21.70;57.20;;;;;;4076438;28;20531;-40
2022/09/16 09:05:58;;;;;;;0.50;0.40;;;21.70;57.30;;;;;;4087913;28;20075;-39
2022/09/16 09:08:57;;;;;;;0.65;0.57;;;21.60;57.30;;;;;;4022612;29;20575;-40
2022/09/16 09:11:41;;;;;;;0.50;0.38;;;21.60;57.40;;;;;;4080078;28;20039;-40
2022/09/16 09:14:13;;;;;;;1.00;0.65;;;21.60;57.30;;;;;;4068199;28;20126;-40
2022/09/16 09:16:53;;;;;;;0.47;0.30;;;21.60;57.40;;;;;;4077495;28;20039;-40
2022/09/16 09:19:54;;;;;;;0.52;0.50;;;21.60;57.40;;;;;;4067996;28;20492;-40
2022/09/16 09:22:29;;;;;;;0.88;0.60;;;21.60;57.40;;;;;;4061910;28;20093;-40
2022/09/16 09:24:55;;;;;;;0.68;0.50;;;21.60;57.40;;;;;;4078187;28;20067;-41
2022/09/16 09:27:39;;;;;;;1.30;0.65;;;21.60;57.40;;;;;;4078118;28;20046;-40
2022/09/16 09:30:20;;;;;;;1.40;0.60;;;21.50;57.40;;;;;;4067731;28;20112;-41
2022/09/16 09:33:07;;;;;;;0.60;0.35;;;21.50;57.40;;;;;;4080295;28;20051;-40
2022/09/16 09:35:46;;;;;;;1.58;0.80;;;21.50;57.40;;;;;;4081757;28;20066;-39
2022/09/16 09:38:39;;;;;;;1.35;0.63;;;21.50;57.50;;;;;;4079356;28;20074;-39
2022/09/16 09:41:36;;;;;;;0.85;0.65;;;21.50;57.40;;;;;;4075011;28;20123;-42
2022/09/16 09:44:24;;;;;;;1.13;0.68;;;21.50;57.50;;;;;;4079847;28;20423;-41
2022/09/16 09:46:52;;;;;;;1.73;0.95;;;21.50;57.50;;;;;;4081216;28;20411;-41
2022/09/16 09:49:34;;;;;;;1.20;0.80;;;21.40;57.40;;;;;;4080456;28;20435;-41
2022/09/16 09:52:10;;;;;;;0.77;0.55;;;21.40;57.50;;;;;;4074810;28;20050;-42
2022/09/16 09:54:35;;;;;;;1.45;0.90;;;21.40;57.50;;;;;;4081330;28;20043;-41
2022/09/16 09:57:02;;;;;;;0.82;0.70;;;21.40;57.50;;;;;;4077764;28;20031;-39
2022/09/16 10:00:06;;;;;;;1.48;0.95;;;21.40;57.50;;;;;;4076142;28;20941;-42
2022/09/16 10:02:29;;;;;;;1.48;0.73;;;21.40;57.50;;;;;;4054256;29;20040;-39
2022/09/16 10:04:52;;;;;;;0.70;0.60;;;21.40;57.50;;;;;;4078342;28;20498;-39
2022/09/16 10:07:17;;;;;;;1.77;0.80;;;21.40;57.60;;;;;;4080241;28;20788;-41
2022/09/16 10:09:57;;;;;;;1.77;1.00;;;21.40;57.50;;;;;;4081064;28;20042;-42
2022/09/16 10:12:46;;;;;;;1.98;1.00;;;21.30;57.40;;;;;;4072778;28;20563;-39
2022/09/16 10:15:23;;;;;;;1.50;0.90;;;21.40;57.50;;;;;;4076668;28;20463;-38
2022/09/16 10:17:50;;;;;;;1.10;0.88;;;21.30;57.50;;;;;;4079771;28;20101;-38
2022/09/16 10:20:30;;;;;;;0.90;0.70;;;21.30;57.50;;;;;;4077757;28;20046;-40
2022/09/16 10:23:18;;;;;;;2.05;1.00;;;21.30;57.50;;;;;;4077708;28;20042;-40
2022/09/16 10:25:42;;;;;;;2.47;1.02;;;21.30;57.50;;;;;;4080259;28;20534;-40
2022/09/16 10:28:24;;;;;;;1.70;0.90;;;21.30;57.40;;;;;;4077470;28;20130;-38
2022/09/16 10:30:53;;;;;;;2.28;0.90;;;21.30;57.60;;;;;;4082727;28;20122;-39
2022/09/16 10:33:29;;;;;;;1.85;0.98;;;21.30;57.50;;;;;;4081920;28;20051;-38
2022/09/16 10:35:59;;;;;;;1.13;0.90;;;21.30;57.60;;;;;;4080889;28;20544;-44
2022/09/16 10:38:25;;;;;;;1.38;0.80;;;21.20;57.50;;;;;;4081023;28;20074;-39
2022/09/16 10:41:03;;;;;;;1.52;0.90;;;21.20;57.60;;;;;;4080394;28;20098;-40
2022/09/16 10:43:29;;;;;;;2.25;0.90;;;21.20;57.70;;;;;;4083003;28;20059;-39
2022/09/16 10:45:53;;;;;;;1.88;1.10;;;21.20;57.60;;;;;;4084330;28;20051;-39
2022/09/16 10:48:21;;;;;;;1.75;1.08;;;21.20;57.70;;;;;;4084928;28;20574;-39
2022/09/16 10:51:23;;;;;;;1.52;1.15;;;21.20;57.70;;;;;;4082631;28;20058;-40
2022/09/16 10:53:55;;;;;;;1.45;0.85;;;21.20;57.70;;;;;;4083570;28;20058;-39
2022/09/16 10:56:22;;;;;;;1.58;1.13;;;21.20;57.80;;;;;;4078149;28;20471;-40
2022/09/16 10:58:44;;;;;;;1.40;0.93;;;21.10;57.60;;;;;;4081208;28;20513;-41
2022/09/16 11:01:26;;;;;;;0.88;0.80;;;21.20;57.80;;;;;;4081875;28;20043;-38
2022/09/16 11:04:25;;;;;;;1.55;0.98;;;21.10;57.80;;;;;;4077349;28;20047;-39
2022/09/16 11:07:07;;;;;;;1.67;1.02;;;21.10;57.80;;;;;;4081490;28;20035;-39
2022/09/16 11:09:48;;;;;;;2.08;1.45;;;21.10;57.70;;;;;;4079095;28;20043;-40
2022/09/16 11:12:30;;;;;;;1.63;1.20;;;21.10;57.80;;;;;;4079967;28;20423;-39
2022/09/16 11:15:16;;;;;;;1.55;1.25;;;21.10;57.80;;;;;;4082033;28;20050;-42
2022/09/16 11:18:03;;;;;;;1.52;1.17;;;21.10;57.80;;;;;;4080895;28;20039;-39
2022/09/16 11:20:41;;;;;;;2.03;1.05;;;21.10;57.80;;;;;;4077982;28;20102;-39
2022/09/16 11:23:12;;;;;;;2.28;1.30;;;21.00;57.60;;;;;;4079093;28;20094;-39
2022/09/16 11:25:56;;;;;;;2.42;1.40;;;21.10;57.80;;;;;;4079556;28;20527;-40
2022/09/16 11:28:18;;;;;;;2.08;1.50;;;21.10;57.70;;;;;;4079146;28;20549;-39
2022/09/16 11:31:09;;;;;;;2.17;1.48;;;21.00;57.70;;;;;;4081164;28;20075;-38
2022/09/16 11:34:02;;;;;;;2.42;1.50;;;21.00;57.60;;;;;;4080627;28;20043;-41
2022/09/16 11:36:59;;;;;;;1.52;1.15;;;21.00;57.70;;;;;;4081987;28;20043;-39
2022/09/16 11:39:56;;;;;;;2.20;1.40;;;21.00;57.80;;;;;;4081916;28;20690;-40
2022/09/16 11:42:31;;;;;;;2.33;1.38;;;21.00;57.70;;;;;;4082060;28;20051;-42
2022/09/16 11:45:06;;;;;;;1.70;1.48;;;21.00;57.60;;;;;;4080213;28;20067;-39
2022/09/16 11:47:35;;;;;;;2.75;1.60;;;21.00;57.60;;;;;;4080880;28;20118;-40
2022/09/16 11:50:29;;;;;;;1.92;1.35;;;21.00;57.70;;;;;;4077842;28;20043;-40
2022/09/16 11:53:01;;;;;;;2.45;1.50;;;21.00;58.30;;;;;;4072044;28;20043;-40
2022/09/16 11:56:05;;;;;;;2.30;1.55;;;21.00;57.70;;;;;;4082326;28;20158;-40
2022/09/16 11:58:51;;;;;;;1.70;1.20;;;21.00;57.60;;;;;;4018721;29;20806;-42
2022/09/16 12:01:31;;;;;;;1.92;1.50;;;20.90;57.60;;;;;;4082728;28;20805;-40
2022/09/16 12:04:07;;;;;;;3.25;1.60;;;20.90;57.60;;;;;;4080313;28;20090;-41
2022/09/16 12:06:57;;;;;;;2.50;1.40;;;20.90;57.60;;;;;;4083046;28;20039;-41
2022/09/16 12:09:33;;;;;;;1.85;1.40;;;20.90;57.60;;;;;;4066382;28;20431;-40
2022/09/16 12:12:10;;;;;;;2.25;1.45;;;20.90;57.60;;;;;;4083538;28;20166;-42
2022/09/16 12:14:44;;;;;;;2.35;1.30;;;20.90;57.50;;;;;;4088028;28;20053;-40
2022/09/16 12:17:18;;;;;;;2.10;1.38;;;20.90;57.60;;;;;;4085973;28;20039;-39
2022/09/16 12:19:48;;;;;;;2.83;1.45;;;20.90;57.60;;;;;;4082130;28;20126;-40
2022/09/16 12:22:53;;;;;;;2.03;1.50;;;20.80;57.50;;;;;;4081929;28;20523;-39
2022/09/16 12:25:32;;;;;;;2.53;1.40;;;20.80;57.50;;;;;;4051485;29;20658;-39
2022/09/16 12:28:26;;;;;;;1.85;1.30;;;20.80;57.50;;;;;;4083613;28;20513;-42
2022/09/16 12:31:05;;;;;;;2.17;1.47;;;20.80;57.50;;;;;;4084471;28;20063;-40
2022/09/16 12:33:36;;;;;;;1.88;1.20;;;20.80;57.50;;;;;;4080662;28;20380;-40
2022/09/16 12:36:19;;;;;;;3.38;1.55;;;20.80;57.60;;;;;;4084548;28;20043;-40
2022/09/16 12:38:42;;;;;;;1.33;1.20;;;20.80;57.60;;;;;;4082032;28;20039;-44
2022/09/16 12:41:30;;;;;;;1.63;1.15;;;20.70;57.60;;;;;;4075297;28;20117;-45
2022/09/16 12:44:39;;;;;;;2.05;1.30;;;20.70;57.60;;;;;;4077882;28;20087;-41
2022/09/16 12:47:18;;;;;;;1.70;1.35;;;20.70;57.60;;;;;;4084429;28;20533;-47
2022/09/16 12:49:56;;;;;;;2.63;1.40;;;20.70;57.60;;;;;;4084650;28;20035;-40
2022/09/16 12:52:19;;;;;;;1.88;1.25;;;20.70;57.60;;;;;;4084791;28;20035;-42
2022/09/16 12:54:51;;;;;;;2.30;1.30;;;20.70;57.50;;;;;;4080959;28;20042;-40
2022/09/16 12:57:38;;;;;;;2.05;1.20;;;20.70;57.60;;;;;;4084874;28;20587;-39
2022/09/16 13:00:13;;;;;;;2.00;1.13;;;20.70;57.50;;;;;;4086366;28;20582;-39
2022/09/16 13:02:47;;;;;;;2.65;1.25;;;20.60;57.70;;;;;;4086188;28;20043;-39
2022/09/16 13:05:25;;;;;;;1.10;0.93;;;20.60;57.50;;;;;;4085097;28;20093;-40
2022/09/16 13:07:55;;;;;;;1.83;1.38;;;20.60;57.60;;;;;;4079699;28;20035;-39
2022/09/16 13:10:35;;;;;;;2.40;1.35;;;20.60;57.60;;;;;;4085263;28;20043;-43
2022/09/16 13:13:01;;;;;;;2.20;1.08;;;20.60;57.60;;;;;;4080046;28;20045;-42